sensor_id;sensor_type;location;lat;lon;timestamp;pressure;altitude;pressure_sealevel;temperature;humidity
56658;BME280;42530;52.240;19.354;2022-10-26T00:01:06;53148.56;;;-144.69;54.11
56658;BME280;42530;52.240;19.354;2022-10-26T00:03:34;53161.06;;;-144.69;54.04
56658;BME280;42530;52.240;19.354;2022-10-26T00:06:09;53156.91;;;-144.69;53.92
56658;BME280;42530;52.240;19.354;2022-10-26T00:08:35;53136.09;;;-144.69;54.10
56658;BME280;42530;52.240;19.354;2022-10-26T00:11:01;53154.81;;;-144.69;54.07
56658;BME280;42530;52.240;19.354;2022-10-26T00:13:26;53152.75;;;-144.69;53.91
56658;BME280;42530;52.240;19.354;2022-10-26T00:15:53;53150.66;;;-144.69;54.25
56658;BME280;42530;52.240;19.354;2022-10-26T00:18:19;53154.81;;;-144.69;54.38
56658;BME280;42530;52.240;19.354;2022-10-26T00:20:45;53177.72;;;-144.69;54.62
56658;BME280;42530;52.240;19.354;2022-10-26T00:23:10;53165.22;;;-144.69;53.97
56658;BME280;42530;52.240;19.354;2022-10-26T00:25:36;53154.81;;;-144.69;54.10
56658;BME280;42530;52.240;19.354;2022-10-26T00:28:02;53111.13;;;-144.69;53.95
56658;BME280;42530;52.240;19.354;2022-10-26T00:30:27;53156.91;;;-144.69;54.15
56658;BME280;42530;52.240;19.354;2022-10-26T00:32:53;53140.25;;;-144.69;53.97
56658;BME280;42530;52.240;19.354;2022-10-26T00:35:18;53165.22;;;-144.69;54.13
56658;BME280;42530;52.240;19.354;2022-10-26T00:37:44;53144.41;;;-144.69;53.79
56658;BME280;42530;52.240;19.354;2022-10-26T00:40:09;53152.75;;;-144.69;53.58
56658;BME280;42530;52.240;19.354;2022-10-26T00:42:35;53179.78;;;-144.69;53.87
56658;BME280;42530;52.240;19.354;2022-10-26T00:45:18;53131.94;;;-144.69;53.94
56658;BME280;42530;52.240;19.354;2022-10-26T00:47:47;53163.13;;;-144.69;53.93
56658;BME280;42530;52.240;19.354;2022-10-26T00:50:19;53148.56;;;-144.69;54.04
56658;BME280;42530;52.240;19.354;2022-10-26T00:52:50;53152.75;;;-144.69;53.96
56658;BME280;42530;52.240;19.354;2022-10-26T00:55:18;53165.22;;;-144.69;54.42
56658;BME280;42530;52.240;19.354;2022-10-26T00:57:46;53136.09;;;-144.69;54.31
56658;BME280;42530;52.240;19.354;2022-10-26T01:00:13;53123.63;;;-144.69;54.17
56658;BME280;42530;52.240;19.354;2022-10-26T01:02:38;53169.38;;;-144.69;54.28
56658;BME280;42530;52.240;19.354;2022-10-26T01:05:05;53148.56;;;-144.69;54.08
56658;BME280;42530;52.240;19.354;2022-10-26T01:07:31;53186.03;;;-144.69;53.83
56658;BME280;42530;52.240;19.354;2022-10-26T01:09:58;53154.81;;;-144.69;54.01
56658;BME280;42530;52.240;19.354;2022-10-26T01:12:24;53175.63;;;-144.69;54.27
56658;BME280;42530;52.240;19.354;2022-10-26T01:14:50;53140.25;;;-144.69;53.79
56658;BME280;42530;52.240;19.354;2022-10-26T01:17:32;53169.38;;;-144.69;53.82
56658;BME280;42530;52.240;19.354;2022-10-26T01:20:30;53144.41;;;-144.69;53.36
56658;BME280;42530;52.240;19.354;2022-10-26T01:23:07;53152.75;;;-144.69;53.27
56658;BME280;42530;52.240;19.354;2022-10-26T01:31:21;53131.94;;;-144.69;52.81
56658;BME280;42530;52.240;19.354;2022-10-26T01:33:52;53152.75;;;-144.69;52.70
56658;BME280;42530;52.240;19.354;2022-10-26T01:36:56;53136.09;;;-144.69;52.66
56658;BME280;42530;52.240;19.354;2022-10-26T01:39:52;53181.88;;;-144.69;52.95
56658;BME280;42530;52.240;19.354;2022-10-26T01:42:20;53165.22;;;-144.69;53.22
56658;BME280;42530;52.240;19.354;2022-10-26T01:44:55;53156.91;;;-144.69;52.86
56658;BME280;42530;52.240;19.354;2022-10-26T01:47:22;53125.69;;;-144.69;53.85
56658;BME280;42530;52.240;19.354;2022-10-26T01:49:53;53134.00;;;-144.69;54.04
56658;BME280;42530;52.240;19.354;2022-10-26T01:52:20;53169.38;;;-144.69;53.96
56658;BME280;42530;52.240;19.354;2022-10-26T01:54:46;53179.78;;;-144.69;54.15
56658;BME280;42530;52.240;19.354;2022-10-26T01:57:14;53173.53;;;-144.69;54.68
56658;BME280;42530;52.240;19.354;2022-10-26T02:02:23;53181.88;;;-144.69;53.84
56658;BME280;42530;52.240;19.354;2022-10-26T02:07:54;53127.78;;;-144.69;52.90
56658;BME280;42530;52.240;19.354;2022-10-26T02:21:25;53179.78;;;-144.69;54.77
56658;BME280;42530;52.240;19.354;2022-10-26T02:23:54;53158.97;;;-144.69;54.34
56658;BME280;42530;52.240;19.354;2022-10-26T02:26:24;53167.31;;;-144.69;54.17
56658;BME280;42530;52.240;19.354;2022-10-26T02:28:53;53173.53;;;-144.69;55.26
56658;BME280;42530;52.240;19.354;2022-10-26T02:31:23;53169.38;;;-144.69;55.06
56658;BME280;42530;52.240;19.354;2022-10-26T02:33:50;53165.22;;;-144.69;55.11
56658;BME280;42530;52.240;19.354;2022-10-26T02:36:24;53152.75;;;-144.69;55.37
56658;BME280;42530;52.240;19.354;2022-10-26T02:38:51;53156.91;;;-144.69;56.31
56658;BME280;42530;52.240;19.354;2022-10-26T02:41:19;53177.72;;;-144.69;56.12
56658;BME280;42530;52.240;19.354;2022-10-26T02:43:52;53156.91;;;-144.69;55.99
56658;BME280;42530;52.240;19.354;2022-10-26T02:46:21;53131.94;;;-144.69;55.31
56658;BME280;42530;52.240;19.354;2022-10-26T02:48:49;53165.22;;;-144.69;55.26
56658;BME280;42530;52.240;19.354;2022-10-26T02:51:16;53163.13;;;-144.69;55.51
56658;BME280;42530;52.240;19.354;2022-10-26T02:56:58;53152.75;;;-144.69;54.74
56658;BME280;42530;52.240;19.354;2022-10-26T02:59:27;53161.06;;;-144.69;54.67
56658;BME280;42530;52.240;19.354;2022-10-26T03:01:55;53175.63;;;-144.69;55.01
56658;BME280;42530;52.240;19.354;2022-10-26T03:04:30;53146.50;;;-144.69;55.31
56658;BME280;42530;52.240;19.354;2022-10-26T03:06:56;53165.22;;;-144.69;55.51
56658;BME280;42530;52.240;19.354;2022-10-26T03:09:22;53161.06;;;-144.69;55.74
56658;BME280;42530;52.240;19.354;2022-10-26T03:11:48;53152.75;;;-144.69;54.82
56658;BME280;42530;52.240;19.354;2022-10-26T03:14:14;53148.56;;;-144.69;55.14
56658;BME280;42530;52.240;19.354;2022-10-26T03:16:39;53163.13;;;-144.69;55.19
56658;BME280;42530;52.240;19.354;2022-10-26T03:19:05;53161.06;;;-144.69;55.01
56658;BME280;42530;52.240;19.354;2022-10-26T03:21:30;53146.50;;;-144.69;54.83
56658;BME280;42530;52.240;19.354;2022-10-26T03:23:56;53161.06;;;-144.69;54.53
56658;BME280;42530;52.240;19.354;2022-10-26T03:26:21;53156.91;;;-144.69;54.06
56658;BME280;42530;52.240;19.354;2022-10-26T03:28:47;53192.28;;;-144.69;54.75
56658;BME280;42530;52.240;19.354;2022-10-26T03:31:13;53138.19;;;-144.69;54.42
56658;BME280;42530;52.240;19.354;2022-10-26T03:33:38;53140.25;;;-144.69;54.70
56658;BME280;42530;52.240;19.354;2022-10-26T03:36:04;53123.63;;;-144.69;54.85
56658;BME280;42530;52.240;19.354;2022-10-26T03:38:30;53146.50;;;-144.69;54.90
56658;BME280;42530;52.240;19.354;2022-10-26T03:40:55;53158.97;;;-144.69;54.92
56658;BME280;42530;52.240;19.354;2022-10-26T03:43:20;53142.34;;;-144.69;54.20
56658;BME280;42530;52.240;19.354;2022-10-26T03:45:46;53156.91;;;-144.69;54.06
56658;BME280;42530;52.240;19.354;2022-10-26T03:48:12;53156.91;;;-144.69;53.97
56658;BME280;42530;52.240;19.354;2022-10-26T03:50:37;53167.31;;;-144.69;54.29
56658;BME280;42530;52.240;19.354;2022-10-26T03:53:03;53194.34;;;-144.69;54.31
56658;BME280;42530;52.240;19.354;2022-10-26T03:55:29;53150.66;;;-144.69;53.97
56658;BME280;42530;52.240;19.354;2022-10-26T03:57:54;53181.88;;;-144.69;54.73
56658;BME280;42530;52.240;19.354;2022-10-26T04:00:19;53136.09;;;-144.69;54.41
56658;BME280;42530;52.240;19.354;2022-10-26T04:02:53;53161.06;;;-144.69;54.51
56658;BME280;42530;52.240;19.354;2022-10-26T04:05:19;53138.19;;;-144.69;55.45
56658;BME280;42530;52.240;19.354;2022-10-26T04:08:00;53146.50;;;-144.69;54.89
56658;BME280;42530;52.240;19.354;2022-10-26T04:10:28;53142.34;;;-144.69;54.82
56658;BME280;42530;52.240;19.354;2022-10-26T04:12:54;53175.63;;;-144.69;54.28
56658;BME280;42530;52.240;19.354;2022-10-26T04:15:20;53152.75;;;-144.69;53.95
56658;BME280;42530;52.240;19.354;2022-10-26T04:17:46;53173.53;;;-144.69;54.34
56658;BME280;42530;52.240;19.354;2022-10-26T04:20:12;53165.22;;;-144.69;54.36
56658;BME280;42530;52.240;19.354;2022-10-26T04:22:38;53196.44;;;-144.69;54.08
56658;BME280;42530;52.240;19.354;2022-10-26T04:25:05;53175.63;;;-144.69;53.80
56658;BME280;42530;52.240;19.354;2022-10-26T04:27:31;53158.97;;;-144.69;53.38
56658;BME280;42530;52.240;19.354;2022-10-26T04:29:56;53183.94;;;-144.69;54.35
56658;BME280;42530;52.240;19.354;2022-10-26T04:32:22;53161.06;;;-144.69;54.08
56658;BME280;42530;52.240;19.354;2022-10-26T04:34:47;53144.41;;;-144.69;54.38
56658;BME280;42530;52.240;19.354;2022-10-26T04:37:13;53144.41;;;-144.69;53.58
56658;BME280;42530;52.240;19.354;2022-10-26T04:39:38;53165.22;;;-144.69;53.69
56658;BME280;42530;52.240;19.354;2022-10-26T04:42:03;53179.78;;;-144.69;53.38
56658;BME280;42530;52.240;19.354;2022-10-26T04:44:29;53138.19;;;-144.69;53.77
56658;BME280;42530;52.240;19.354;2022-10-26T04:46:54;53198.50;;;-144.69;54.27
56658;BME280;42530;52.240;19.354;2022-10-26T04:49:20;53136.09;;;-144.69;54.03
56658;BME280;42530;52.240;19.354;2022-10-26T04:51:45;53158.97;;;-144.69;53.86
56658;BME280;42530;52.240;19.354;2022-10-26T04:54:11;53179.78;;;-144.69;53.85
56658;BME280;42530;52.240;19.354;2022-10-26T04:56:37;53152.75;;;-144.69;53.75
56658;BME280;42530;52.240;19.354;2022-10-26T04:59:02;53163.13;;;-144.69;54.56
56658;BME280;42530;52.240;19.354;2022-10-26T05:01:29;53171.47;;;-144.69;54.30
56658;BME280;42530;52.240;19.354;2022-10-26T05:03:55;53136.09;;;-144.69;54.72
56658;BME280;42530;52.240;19.354;2022-10-26T05:06:21;53163.13;;;-144.69;54.27
56658;BME280;42530;52.240;19.354;2022-10-26T05:08:47;53186.03;;;-144.69;53.86
56658;BME280;42530;52.240;19.354;2022-10-26T05:11:12;53179.78;;;-144.69;53.98
56658;BME280;42530;52.240;19.354;2022-10-26T05:13:38;53156.91;;;-144.69;54.09
56658;BME280;42530;52.240;19.354;2022-10-26T05:16:03;53144.41;;;-144.69;54.49
56658;BME280;42530;52.240;19.354;2022-10-26T05:18:29;53194.34;;;-144.69;54.70
56658;BME280;42530;52.240;19.354;2022-10-26T05:20:55;53177.72;;;-144.69;54.20
56658;BME280;42530;52.240;19.354;2022-10-26T05:23:20;53150.66;;;-144.69;54.39
56658;BME280;42530;52.240;19.354;2022-10-26T05:25:47;53171.47;;;-144.69;54.14
56658;BME280;42530;52.240;19.354;2022-10-26T05:28:14;53156.91;;;-144.69;53.99
56658;BME280;42530;52.240;19.354;2022-10-26T05:30:41;53200.59;;;-144.69;54.24
56658;BME280;42530;52.240;19.354;2022-10-26T05:33:09;53123.63;;;-144.69;54.13
56658;BME280;42530;52.240;19.354;2022-10-26T05:35:34;53148.56;;;-144.69;53.88
56658;BME280;42530;52.240;19.354;2022-10-26T05:38:06;53208.91;;;-144.69;54.27
56658;BME280;42530;52.240;19.354;2022-10-26T05:40:32;53144.41;;;-144.69;54.15
56658;BME280;42530;52.240;19.354;2022-10-26T05:43:00;53148.56;;;-144.69;53.67
56658;BME280;42530;52.240;19.354;2022-10-26T05:45:27;53165.22;;;-144.69;53.25
56658;BME280;42530;52.240;19.354;2022-10-26T05:47:52;53156.91;;;-144.69;53.42
56658;BME280;42530;52.240;19.354;2022-10-26T05:50:18;53136.09;;;-144.69;53.89
56658;BME280;42530;52.240;19.354;2022-10-26T05:52:45;53148.56;;;-144.69;53.91
56658;BME280;42530;52.240;19.354;2022-10-26T05:55:13;53161.06;;;-144.69;54.07
56658;BME280;42530;52.240;19.354;2022-10-26T05:57:39;53154.81;;;-144.69;53.44
56658;BME280;42530;52.240;19.354;2022-10-26T06:00:22;53156.91;;;-144.69;53.36
56658;BME280;42530;52.240;19.354;2022-10-26T06:05:21;53183.94;;;-144.69;53.39
56658;BME280;42530;52.240;19.354;2022-10-26T06:07:48;53173.53;;;-144.69;54.19
56658;BME280;42530;52.240;19.354;2022-10-26T06:10:15;53121.53;;;-144.69;54.34
56658;BME280;42530;52.240;19.354;2022-10-26T06:12:41;53152.75;;;-144.69;53.93
56658;BME280;42530;52.240;19.354;2022-10-26T06:15:08;53173.53;;;-144.69;54.13
56658;BME280;42530;52.240;19.354;2022-10-26T06:25:39;53148.56;;;-144.69;53.47
56658;BME280;42530;52.240;19.354;2022-10-26T06:30:39;53175.63;;;-144.69;54.45
56658;BME280;42530;52.240;19.354;2022-10-26T06:33:04;53158.97;;;-144.69;54.24
56658;BME280;42530;52.240;19.354;2022-10-26T06:38:09;53165.22;;;-144.69;53.45
56658;BME280;42530;52.240;19.354;2022-10-26T06:40:38;53181.88;;;-144.69;54.06
56658;BME280;42530;52.240;19.354;2022-10-26T06:43:13;53173.53;;;-144.69;53.48
56658;BME280;42530;52.240;19.354;2022-10-26T06:45:43;53152.75;;;-144.69;53.26
56658;BME280;42530;52.240;19.354;2022-10-26T06:48:15;53148.56;;;-144.69;52.92
56658;BME280;42530;52.240;19.354;2022-10-26T06:50:50;53179.78;;;-144.69;54.34
56658;BME280;42530;52.240;19.354;2022-10-26T06:56:00;53173.53;;;-144.69;53.44
56658;BME280;42530;52.240;19.354;2022-10-26T06:58:32;53163.13;;;-144.69;53.13
56658;BME280;42530;52.240;19.354;2022-10-26T07:00:58;53177.72;;;-144.69;54.22
56658;BME280;42530;52.240;19.354;2022-10-26T07:03:23;53196.44;;;-144.69;53.88
56658;BME280;42530;52.240;19.354;2022-10-26T07:05:49;53167.31;;;-144.69;53.63
56658;BME280;42530;52.240;19.354;2022-10-26T07:08:15;53158.97;;;-144.69;53.25
56658;BME280;42530;52.240;19.354;2022-10-26T07:10:40;53163.13;;;-144.69;52.41
56658;BME280;42530;52.240;19.354;2022-10-26T07:13:08;53244.28;;;-144.69;52.90
56658;BME280;42530;52.240;19.354;2022-10-26T07:15:35;53173.53;;;-144.69;52.47
56658;BME280;42530;52.240;19.354;2022-10-26T07:18:02;53165.22;;;-144.69;52.87
56658;BME280;42530;52.240;19.354;2022-10-26T07:20:30;53183.94;;;-144.69;52.78
56658;BME280;42530;52.240;19.354;2022-10-26T07:22:57;53136.09;;;-144.69;52.69
56658;BME280;42530;52.240;19.354;2022-10-26T07:25:24;53186.03;;;-144.69;52.74
56658;BME280;42530;52.240;19.354;2022-10-26T07:27:50;53148.56;;;-144.69;52.63
56658;BME280;42530;52.240;19.354;2022-10-26T07:30:15;53167.31;;;-144.69;52.00
56658;BME280;42530;52.240;19.354;2022-10-26T07:32:41;53181.88;;;-144.69;51.37
56658;BME280;42530;52.240;19.354;2022-10-26T07:35:06;53192.28;;;-144.69;51.82
56658;BME280;42530;52.240;19.354;2022-10-26T07:37:32;53144.41;;;-144.69;52.66
56658;BME280;42530;52.240;19.354;2022-10-26T07:39:57;53183.94;;;-144.69;51.94
56658;BME280;42530;52.240;19.354;2022-10-26T07:42:23;53175.63;;;-144.69;51.90
56658;BME280;42530;52.240;19.354;2022-10-26T07:44:49;53142.34;;;-144.69;52.23
56658;BME280;42530;52.240;19.354;2022-10-26T07:47:14;53165.22;;;-144.69;52.37
56658;BME280;42530;52.240;19.354;2022-10-26T07:49:40;53161.06;;;-144.69;52.34
56658;BME280;42530;52.240;19.354;2022-10-26T07:52:05;53158.97;;;-144.69;52.84
56658;BME280;42530;52.240;19.354;2022-10-26T07:54:31;53196.44;;;-144.69;53.22
56658;BME280;42530;52.240;19.354;2022-10-26T07:56:56;53169.38;;;-144.69;53.47
56658;BME280;42530;52.240;19.354;2022-10-26T07:59:22;53165.22;;;-144.69;53.20
56658;BME280;42530;52.240;19.354;2022-10-26T08:01:48;53175.63;;;-144.69;52.20
56658;BME280;42530;52.240;19.354;2022-10-26T08:04:14;53194.34;;;-144.69;52.49
56658;BME280;42530;52.240;19.354;2022-10-26T08:06:39;53156.91;;;-144.69;52.96
56658;BME280;42530;52.240;19.354;2022-10-26T08:09:05;53190.19;;;-144.69;52.61
56658;BME280;42530;52.240;19.354;2022-10-26T08:11:30;53219.31;;;-144.69;52.58
56658;BME280;42530;52.240;19.354;2022-10-26T08:13:56;53181.88;;;-144.69;52.80
56658;BME280;42530;52.240;19.354;2022-10-26T08:16:21;53194.34;;;-144.69;52.98
56658;BME280;42530;52.240;19.354;2022-10-26T08:18:50;53198.50;;;-144.69;52.29
56658;BME280;42530;52.240;19.354;2022-10-26T08:21:16;53202.66;;;-144.69;52.62
56658;BME280;42530;52.240;19.354;2022-10-26T08:23:41;53177.72;;;-144.69;52.45
56658;BME280;42530;52.240;19.354;2022-10-26T08:26:08;53194.34;;;-144.69;52.63
56658;BME280;42530;52.240;19.354;2022-10-26T08:28:37;53186.03;;;-144.69;52.45
56658;BME280;42530;52.240;19.354;2022-10-26T08:31:03;53144.41;;;-144.69;52.07
56658;BME280;42530;52.240;19.354;2022-10-26T08:33:28;53206.84;;;-144.69;52.40
56658;BME280;42530;52.240;19.354;2022-10-26T08:36:00;53161.06;;;-144.69;53.09
56658;BME280;42530;52.240;19.354;2022-10-26T08:38:26;53192.28;;;-144.69;52.67
56658;BME280;42530;52.240;19.354;2022-10-26T08:40:52;53206.84;;;-144.69;51.83
56658;BME280;42530;52.240;19.354;2022-10-26T08:43:26;53156.91;;;-144.69;52.22
56658;BME280;42530;52.240;19.354;2022-10-26T08:48:37;53148.56;;;-144.69;51.92
56658;BME280;42530;52.240;19.354;2022-10-26T08:54:09;53190.19;;;-144.69;52.69
56658;BME280;42530;52.240;19.354;2022-10-26T08:56:39;53161.06;;;-144.69;52.55
56658;BME280;42530;52.240;19.354;2022-10-26T08:59:35;53188.09;;;-144.69;52.34
56658;BME280;42530;52.240;19.354;2022-10-26T09:02:10;53190.19;;;-144.69;52.95
56658;BME280;42530;52.240;19.354;2022-10-26T09:04:36;53198.50;;;-144.69;52.45
56658;BME280;42530;52.240;19.354;2022-10-26T09:07:11;53211.00;;;-144.69;52.48
56658;BME280;42530;52.240;19.354;2022-10-26T09:09:45;53165.22;;;-144.69;52.27
56658;BME280;42530;52.240;19.354;2022-10-26T09:17:51;53144.41;;;-144.69;52.78
56658;BME280;42530;52.240;19.354;2022-10-26T09:26:02;53169.38;;;-144.69;51.66
56658;BME280;42530;52.240;19.354;2022-10-26T09:28:32;53158.97;;;-144.69;51.82
56658;BME280;42530;52.240;19.354;2022-10-26T09:31:00;53181.88;;;-144.69;52.47
56658;BME280;42530;52.240;19.354;2022-10-26T09:33:27;53194.34;;;-144.69;52.84
56658;BME280;42530;52.240;19.354;2022-10-26T09:36:05;53144.41;;;-144.69;52.54
56658;BME280;42530;52.240;19.354;2022-10-26T09:38:41;53169.38;;;-144.69;52.69
56658;BME280;42530;52.240;19.354;2022-10-26T09:41:32;53167.31;;;-144.69;52.65
56658;BME280;42530;52.240;19.354;2022-10-26T09:46:59;53196.44;;;-144.69;51.70
56658;BME280;42530;52.240;19.354;2022-10-26T09:49:43;53190.19;;;-144.69;51.57
56658;BME280;42530;52.240;19.354;2022-10-26T09:52:13;53158.97;;;-144.69;53.04
56658;BME280;42530;52.240;19.354;2022-10-26T09:54:39;53156.91;;;-144.69;52.86
56658;BME280;42530;52.240;19.354;2022-10-26T09:57:06;53173.53;;;-144.69;52.75
56658;BME280;42530;52.240;19.354;2022-10-26T09:59:34;53175.63;;;-144.69;52.77
56658;BME280;42530;52.240;19.354;2022-10-26T10:04:56;53183.94;;;-144.69;52.52
56658;BME280;42530;52.240;19.354;2022-10-26T10:07:22;53206.84;;;-144.69;53.41
56658;BME280;42530;52.240;19.354;2022-10-26T10:10:06;53169.38;;;-144.69;53.20
56658;BME280;42530;52.240;19.354;2022-10-26T10:12:31;53175.63;;;-144.69;52.54
56658;BME280;42530;52.240;19.354;2022-10-26T10:14:58;53169.38;;;-144.69;52.79
56658;BME280;42530;52.240;19.354;2022-10-26T10:17:24;53211.00;;;-144.69;51.95
56658;BME280;42530;52.240;19.354;2022-10-26T10:19:50;53186.03;;;-144.69;52.14
56658;BME280;42530;52.240;19.354;2022-10-26T10:25:00;53165.22;;;-144.69;52.84
56658;BME280;42530;52.240;19.354;2022-10-26T10:27:27;53173.53;;;-144.69;53.09
56658;BME280;42530;52.240;19.354;2022-10-26T10:29:54;53208.91;;;-144.69;53.31
56658;BME280;42530;52.240;19.354;2022-10-26T10:32:25;53190.19;;;-144.69;52.66
56658;BME280;42530;52.240;19.354;2022-10-26T10:34:58;53177.72;;;-144.69;52.29
56658;BME280;42530;52.240;19.354;2022-10-26T10:37:39;53223.47;;;-144.69;52.61
56658;BME280;42530;52.240;19.354;2022-10-26T10:42:36;53163.13;;;-144.69;52.70
56658;BME280;42530;52.240;19.354;2022-10-26T10:45:04;53194.34;;;-144.69;52.65
56658;BME280;42530;52.240;19.354;2022-10-26T10:47:33;53196.44;;;-144.69;52.04
56658;BME280;42530;52.240;19.354;2022-10-26T10:50:00;53221.41;;;-144.69;52.15
56658;BME280;42530;52.240;19.354;2022-10-26T10:52:29;53194.34;;;-144.69;51.41
56658;BME280;42530;52.240;19.354;2022-10-26T10:55:07;53202.66;;;-144.69;51.21
56658;BME280;42530;52.240;19.354;2022-10-26T10:57:45;53161.06;;;-144.69;51.66
56658;BME280;42530;52.240;19.354;2022-10-26T11:00:23;53177.72;;;-144.69;51.51
56658;BME280;42530;52.240;19.354;2022-10-26T11:03:14;53219.31;;;-144.69;51.10
56658;BME280;42530;52.240;19.354;2022-10-26T11:08:26;53173.53;;;-144.69;50.07
56658;BME280;42530;52.240;19.354;2022-10-26T11:14:15;53179.78;;;-144.69;49.38
56658;BME280;42530;52.240;19.354;2022-10-26T11:16:48;53186.03;;;-144.69;49.39
56658;BME280;42530;52.240;19.354;2022-10-26T11:19:21;53192.28;;;-144.69;48.55
56658;BME280;42530;52.240;19.354;2022-10-26T11:21:52;53163.13;;;-144.69;43.88
56658;BME280;42530;52.240;19.354;2022-10-26T11:24:30;53181.88;;;-144.69;44.57
56658;BME280;42530;52.240;19.354;2022-10-26T11:27:19;53186.03;;;-144.69;46.26
56658;BME280;42530;52.240;19.354;2022-10-26T11:32:15;53152.75;;;-144.69;45.26
56658;BME280;42530;52.240;19.354;2022-10-26T11:37:35;53181.88;;;-144.69;45.44
56658;BME280;42530;52.240;19.354;2022-10-26T11:43:02;53154.81;;;-144.69;39.48
56658;BME280;42530;52.240;19.354;2022-10-26T11:45:35;53163.13;;;-144.69;40.39
56658;BME280;42530;52.240;19.354;2022-10-26T11:50:50;53134.00;;;-144.69;41.95
56658;BME280;42530;52.240;19.354;2022-10-26T11:53:18;53206.84;;;-144.69;39.10
56658;BME280;42530;52.240;19.354;2022-10-26T11:55:50;53194.34;;;-144.69;36.92
56658;BME280;42530;52.240;19.354;2022-10-26T11:58:16;53169.38;;;-144.69;39.32
56658;BME280;42530;52.240;19.354;2022-10-26T12:00:48;53131.94;;;-144.69;40.17
56658;BME280;42530;52.240;19.354;2022-10-26T12:03:25;53156.91;;;-144.69;40.77
56658;BME280;42530;52.240;19.354;2022-10-26T12:05:52;53196.44;;;-144.69;38.72
56658;BME280;42530;52.240;19.354;2022-10-26T12:08:22;53150.66;;;-144.69;34.03
56658;BME280;42530;52.240;19.354;2022-10-26T12:11:00;53165.22;;;-144.69;31.10
56658;BME280;42530;52.240;19.354;2022-10-26T12:13:47;53154.81;;;-144.69;29.82
56658;BME280;42530;52.240;19.354;2022-10-26T12:19:04;53115.28;;;-144.69;29.71
56658;BME280;42530;52.240;19.354;2022-10-26T12:21:33;53165.22;;;-144.69;31.78
56658;BME280;42530;52.240;19.354;2022-10-26T12:24:03;53163.13;;;-144.69;29.90
56658;BME280;42530;52.240;19.354;2022-10-26T12:26:54;53150.66;;;-144.69;28.69
56658;BME280;42530;52.240;19.354;2022-10-26T12:29:32;53165.22;;;-144.69;27.32
56658;BME280;42530;52.240;19.354;2022-10-26T12:32:02;53119.44;;;-144.69;26.95
56658;BME280;42530;52.240;19.354;2022-10-26T12:39:33;53154.81;;;-144.69;26.48
56658;BME280;42530;52.240;19.354;2022-10-26T12:52:46;53117.38;;;-144.69;25.22
56658;BME280;42530;52.240;19.354;2022-10-26T12:55:49;53082.00;;;-144.69;26.02
56658;BME280;42530;52.240;19.354;2022-10-26T12:58:32;53140.25;;;-144.69;26.31
56658;BME280;42530;52.240;19.354;2022-10-26T13:03:45;53096.56;;;-144.69;25.87
56658;BME280;42530;52.240;19.354;2022-10-26T13:06:16;53111.13;;;-144.69;25.19
56658;BME280;42530;52.240;19.354;2022-10-26T13:08:50;53090.31;;;-144.69;25.73
56658;BME280;42530;52.240;19.354;2022-10-26T13:11:30;53123.63;;;-144.69;25.64
56658;BME280;42530;52.240;19.354;2022-10-26T13:14:02;53127.78;;;-144.69;25.33
56658;BME280;42530;52.240;19.354;2022-10-26T13:16:29;53106.97;;;-144.69;25.17
56658;BME280;42530;52.240;19.354;2022-10-26T13:18:55;53094.47;;;-144.69;25.22
56658;BME280;42530;52.240;19.354;2022-10-26T13:21:22;53115.28;;;-144.69;25.15
56658;BME280;42530;52.240;19.354;2022-10-26T13:26:23;53096.56;;;-144.69;26.55
56658;BME280;42530;52.240;19.354;2022-10-26T13:28:51;53090.31;;;-144.69;25.81
56658;BME280;42530;52.240;19.354;2022-10-26T13:37:04;53079.91;;;-144.69;26.48
56658;BME280;42530;52.240;19.354;2022-10-26T13:39:35;53090.31;;;-144.69;26.03
56658;BME280;42530;52.240;19.354;2022-10-26T13:42:02;53102.81;;;-144.69;25.95
56658;BME280;42530;52.240;19.354;2022-10-26T13:44:47;53082.00;;;-144.69;25.57
56658;BME280;42530;52.240;19.354;2022-10-26T13:47:23;53065.34;;;-144.69;26.29
56658;BME280;42530;52.240;19.354;2022-10-26T13:49:53;53102.81;;;-144.69;27.79
56658;BME280;42530;52.240;19.354;2022-10-26T13:52:42;53077.84;;;-144.69;27.46
56658;BME280;42530;52.240;19.354;2022-10-26T13:56:23;53071.59;;;-144.69;27.62
56658;BME280;42530;52.240;19.354;2022-10-26T14:03:27;53065.34;;;-144.69;27.35
56658;BME280;42530;52.240;19.354;2022-10-26T14:05:53;53082.00;;;-144.69;27.60
56658;BME280;42530;52.240;19.354;2022-10-26T14:08:19;53098.66;;;-144.69;28.27
56658;BME280;42530;52.240;19.354;2022-10-26T14:10:52;53077.84;;;-144.69;27.72
56658;BME280;42530;52.240;19.354;2022-10-26T14:13:22;53109.06;;;-144.69;27.00
56658;BME280;42530;52.240;19.354;2022-10-26T14:15:50;53073.69;;;-144.69;28.11
56658;BME280;42530;52.240;19.354;2022-10-26T14:18:20;53057.03;;;-144.69;26.85
56658;BME280;42530;52.240;19.354;2022-10-26T14:20:56;53077.84;;;-144.69;27.68
56658;BME280;42530;52.240;19.354;2022-10-26T14:23:33;53123.63;;;-144.69;27.76
56658;BME280;42530;52.240;19.354;2022-10-26T14:25:59;53115.28;;;-144.69;27.94
56658;BME280;42530;52.240;19.354;2022-10-26T14:28:28;53109.06;;;-144.69;28.54
56658;BME280;42530;52.240;19.354;2022-10-26T14:31:10;53071.59;;;-144.69;28.49
56658;BME280;42530;52.240;19.354;2022-10-26T14:33:36;53106.97;;;-144.69;28.86
56658;BME280;42530;52.240;19.354;2022-10-26T14:36:02;53104.88;;;-144.69;29.34
56658;BME280;42530;52.240;19.354;2022-10-26T14:38:29;53086.16;;;-144.69;29.64
56658;BME280;42530;52.240;19.354;2022-10-26T14:40:58;53088.25;;;-144.69;29.68
56658;BME280;42530;52.240;19.354;2022-10-26T14:43:24;53094.47;;;-144.69;30.83
56658;BME280;42530;52.240;19.354;2022-10-26T14:45:51;53100.72;;;-144.69;31.66